Time;durP1;ratioP1;P1;durP2;ratioP2;P2;SDS_P1;SDS_P2;PMS_P1;PMS_P2;Temp;Humidity;BMP_temperature;BMP_pressure;BME280_temperature;BME280_humidity;BME280_pressure;Samples;Min_cycle;Max_cycle;Signal;HPM_P1;HPM_P2
2023/11/26 17:01:40;;;;;;;6.03;4.80;;;;;;;-1.63;100.00;100445.59;6281733;22;1230838;-90
2023/11/26 17:04:07;;;;;;;8.60;5.30;;;;;;;-1.67;100.00;100452.44;6258986;22;20102;-90
2023/11/26 17:06:35;;;;;;;9.37;5.23;;;;;;;-1.67;100.00;100457.59;6284093;22;20459;-90
2023/11/26 17:09:02;;;;;;;8.77;5.47;;;;;;;-1.67;100.00;100460.19;6255949;22;20109;-88
2023/11/26 17:11:29;;;;;;;7.83;5.13;;;;;;;-1.72;100.00;100461.78;6279009;22;20093;-91
2023/11/26 17:13:56;;;;;;;7.70;4.50;;;;;;;-1.71;100.00;100461.81;6253400;22;20094;-90
2023/11/26 17:16:24;;;;;;;6.27;4.57;;;;;;;-1.73;100.00;100452.25;6278636;22;20094;-90
2023/11/26 17:18:51;;;;;;;6.87;4.37;;;;;;;-1.75;100.00;100452.22;6279220;22;20094;-89
2023/11/26 17:21:18;;;;;;;7.97;4.90;;;;;;;-1.71;100.00;100454.03;6305077;22;20091;-90
2023/11/26 17:23:45;;;;;;;8.50;4.73;;;;;;;-1.73;100.00;100462.63;6278955;22;20098;-90
2023/11/26 17:26:20;;;;;;;7.30;4.37;;;;;;;-1.72;100.00;100462.66;6280479;22;20094;-90
2023/11/26 17:28:48;;;;;;;9.10;5.87;;;;;;;-1.76;100.00;100466.03;6279176;22;20090;-89
2023/11/26 17:31:22;;;;;;;11.13;6.40;;;;;;;-1.81;100.00;100459.81;6253744;22;20091;-89
2023/11/26 17:33:49;;;;;;;9.40;5.60;;;;;;;-1.83;100.00;100471.88;6304463;22;20095;-90
2023/11/26 17:36:16;;;;;;;10.77;5.83;;;;;;;-1.81;100.00;100472.78;6278745;22;20098;-90
2023/11/26 17:38:44;;;;;;;10.87;6.77;;;;;;;-1.83;100.00;100474.47;6253261;22;20090;-89
2023/11/26 17:41:11;;;;;;;10.17;4.93;;;;;;;-1.87;100.00;100484.69;6254391;22;20098;-90
2023/11/26 17:43:39;;;;;;;6.87;3.93;;;;;;;-1.85;100.00;100483.91;6306628;22;20426;-89
2023/11/26 17:46:06;;;;;;;6.93;3.87;;;;;;;-1.89;100.00;100478.59;6255464;22;20071;-89
2023/11/26 17:48:33;;;;;;;6.90;3.50;;;;;;;-1.88;100.00;100472.56;6307238;22;20082;-89
2023/11/26 17:51:01;;;;;;;4.53;3.23;;;;;;;-1.90;100.00;100475.13;6280754;22;20537;-89
2023/11/26 17:53:28;;;;;;;5.10;3.13;;;;;;;-1.90;100.00;100477.72;6280729;22;20102;-89
2023/11/26 17:55:55;;;;;;;5.77;3.20;;;;;;;-1.90;100.00;100480.31;6257052;22;20082;-89
2023/11/26 17:58:22;;;;;;;5.50;3.17;;;;;;;-1.95;100.00;100486.19;6282653;22;20125;-89
2023/11/26 18:00:49;;;;;;;4.77;2.50;;;;;;;-2.00;100.00;100486.06;6282118;22;20099;-90
2023/11/26 18:03:29;;;;;;;4.90;3.00;;;;;;;-1.98;100.00;100482.69;6283373;22;20105;-90
2023/11/26 18:05:59;;;;;;;4.43;2.60;;;;;;;-1.93;100.00;100476.75;6258181;22;20086;-90
2023/11/26 18:08:26;;;;;;;4.87;2.73;;;;;;;-1.95;100.00;100484.47;6283738;22;20098;-90
2023/11/26 18:10:53;;;;;;;3.77;2.10;;;;;;;-2.05;100.00;100472.13;6323393;22;20061;-90
2023/11/26 18:13:20;;;;;;;5.53;2.70;;;;;;;-2.02;100.00;100478.28;6307601;22;20099;-90
2023/11/26 18:15:47;;;;;;;4.17;2.37;;;;;;;-2.01;100.00;100480.03;6281855;22;20082;-90
2023/11/26 18:18:14;;;;;;;3.60;2.07;;;;;;;-2.07;100.00;100476.38;6283336;22;20086;-89
2023/11/26 18:20:41;;;;;;;6.13;2.17;;;;;;;-2.06;100.00;100476.41;6254903;22;20154;-90
2023/11/26 18:23:08;;;;;;;5.80;2.30;;;;;;;-2.06;100.00;100471.25;6305981;22;20075;-88
2023/11/26 18:25:37;;;;;;;3.80;2.50;;;;;;;-2.07;100.00;100471.22;6255358;22;20416;-88
2023/11/26 18:28:04;;;;;;;5.23;2.23;;;;;;;-2.01;100.00;100471.38;6306099;22;20393;-87
2023/11/26 18:30:31;;;;;;;3.23;2.23;;;;;;;-2.05;100.00;100462.63;6280204;22;20098;-87
2023/11/26 18:33:00;;;;;;;4.73;2.20;;;;;;;-2.09;100.00;100459.94;6280582;22;20086;-91
2023/11/26 18:35:27;;;;;;;4.70;3.27;;;;;;;-2.09;100.00;100453.06;6281262;22;20095;-89
2023/11/26 18:37:56;;;;;;;4.20;2.20;;;;;;;-2.08;100.00;100449.63;6255669;22;20506;-88
2023/11/26 18:40:23;;;;;;;5.97;3.17;;;;;;;-2.10;100.00;100453.91;6281063;22;20095;-88
2023/11/26 18:42:50;;;;;;;4.43;2.70;;;;;;;-2.17;100.00;100449.38;6280395;22;20094;-90
2023/11/26 18:45:19;;;;;;;6.50;3.10;;;;;;;-2.17;100.00;100458.84;6280217;22;20094;-92
2023/11/26 18:47:46;;;;;;;4.27;3.17;;;;;;;-2.14;100.00;100453.75;6281201;22;20098;-88
2023/11/26 18:50:14;;;;;;;6.43;3.03;;;;;;;-2.18;100.00;100447.63;6306312;22;20671;-88
2023/11/26 18:52:41;;;;;;;7.30;4.20;;;;;;;-2.11;100.00;100448.66;6281312;22;20098;-87
2023/11/26 18:55:08;;;;;;;6.40;3.97;;;;;;;-2.15;100.00;100458.06;6281257;22;20114;-89
2023/11/26 18:57:35;;;;;;;7.13;4.63;;;;;;;-2.15;100.00;100452.00;6306304;22;20083;-87
2023/11/26 19:00:05;;;;;;;6.23;4.40;;;;;;;-2.18;100.00;100451.94;6256339;22;20111;-87
2023/11/26 19:02:33;;;;;;;7.73;5.17;;;;;;;-2.20;100.00;100445.81;6282060;22;20099;-87
2023/11/26 19:05:00;;;;;;;9.50;5.03;;;;;;;-2.15;100.00;100444.25;6255687;22;20090;-88
2023/11/26 19:07:27;;;;;;;9.37;5.37;;;;;;;-2.18;100.00;100452.81;6280938;22;20082;-87
2023/11/26 19:09:54;;;;;;;8.33;5.17;;;;;;;-2.20;100.00;100443.22;6281382;22;20111;-89
2023/11/26 19:12:21;;;;;;;9.50;5.47;;;;;;;-2.19;100.00;100439.81;6280881;22;20098;-88
2023/11/26 19:14:48;;;;;;;9.47;5.40;;;;;;;-2.19;100.00;100434.63;6280807;22;20094;-87
2023/11/26 19:17:15;;;;;;;8.97;4.77;;;;;;;-2.16;100.00;100437.31;6281721;22;20094;-86
2023/11/26 19:19:42;;;;;;;7.60;5.03;;;;;;;-2.20;100.00;100427.69;6281136;22;20113;-88
2023/11/26 19:22:09;;;;;;;9.33;4.63;;;;;;;-2.19;100.00;100424.28;6306641;22;20091;-88
2023/11/26 19:24:36;;;;;;;7.13;4.57;;;;;;;-2.17;100.00;100430.38;6280620;22;20683;-89
2023/11/26 19:27:03;;;;;;;8.33;4.70;;;;;;;-2.15;100.00;100421.81;6280657;22;20502;-87
2023/11/26 19:29:33;;;;;;;7.00;4.97;;;;;;;-2.08;100.00;100430.63;6306732;22;20102;-90
2023/11/26 19:32:00;;;;;;;6.17;3.90;;;;;;;-2.11;100.00;100431.41;6305951;22;20098;-87
2023/11/26 19:34:27;;;;;;;6.00;4.33;;;;;;;-2.13;100.00;100432.22;6255054;22;20510;-88
2023/11/26 19:36:54;;;;;;;8.60;5.20;;;;;;;-2.13;100.00;100434.81;6263553;22;20031;-89
2023/11/26 19:39:21;;;;;;;9.93;5.10;;;;;;;-2.14;100.00;100433.06;6311920;22;20042;-88
2023/11/26 19:41:48;;;;;;;7.87;4.80;;;;;;;-2.18;100.00;100431.22;6303192;22;20091;-88
2023/11/26 19:44:15;;;;;;;9.40;4.90;;;;;;;-2.18;100.00;100436.41;6277704;22;20086;-88
2023/11/26 19:46:42;;;;;;;7.00;4.60;;;;;;;-2.16;100.00;100425.25;6277410;22;20086;-89
2023/11/26 19:49:09;;;;;;;6.50;4.53;;;;;;;-2.17;100.00;100435.56;6277865;22;20082;-89
2023/11/26 19:51:36;;;;;;;12.37;5.30;;;;;;;-2.18;100.00;100428.66;6277211;22;20407;-89
2023/11/26 19:54:04;;;;;;;9.87;4.43;;;;;;;-2.16;100.00;100424.38;6252458;22;20066;-89
2023/11/26 19:56:36;;;;;;;8.70;4.47;;;;;;;-2.15;100.00;100416.66;6278426;22;20082;-89
2023/11/26 19:59:03;;;;;;;8.13;4.20;;;;;;;-2.22;100.00;100413.84;6303393;22;20098;-89
2023/11/26 20:01:30;;;;;;;5.50;3.87;;;;;;;-2.22;100.00;100413.84;6252201;22;20074;-90
2023/11/26 20:03:57;;;;;;;5.80;4.23;;;;;;;-2.20;100.00;100415.63;6277887;22;20094;-90
2023/11/26 20:06:24;;;;;;;6.77;4.07;;;;;;;-2.23;100.00;100406.94;6303107;22;20522;-89
2023/11/26 20:08:52;;;;;;;7.63;4.03;;;;;;;-2.20;100.00;100418.22;6252399;22;20525;-89
2023/11/26 20:11:19;;;;;;;5.20;4.10;;;;;;;-2.17;100.00;100415.75;6277426;22;20556;-89
2023/11/26 20:13:47;;;;;;;7.10;4.43;;;;;;;-2.18;100.00;100426.94;6277565;22;20074;-89
2023/11/26 20:16:14;;;;;;;6.67;4.23;;;;;;;-2.17;100.00;100420.03;6253702;22;20095;-89
2023/11/26 20:18:42;;;;;;;9.27;5.37;;;;;;;-2.15;100.00;100419.22;6253018;22;20094;-89
2023/11/26 20:21:09;;;;;;;6.93;4.87;;;;;;;-2.19;100.00;100421.69;6277705;22;20102;-89
2023/11/26 20:23:36;;;;;;;7.27;4.10;;;;;;;-2.24;100.00;100410.34;6303649;22;20090;-89
2023/11/26 20:26:03;;;;;;;6.97;4.80;;;;;;;-2.27;100.00;100409.44;6278145;22;20497;-89
2023/11/26 20:28:30;;;;;;;6.53;4.17;;;;;;;-2.26;100.00;100407.72;6277566;22;20401;-89
2023/11/26 20:30:58;;;;;;;6.67;4.97;;;;;;;-2.16;100.00;100406.25;6277514;22;20067;-88
2023/11/26 20:33:36;;;;;;;8.10;4.67;;;;;;;-2.08;100.00;100412.53;6280057;22;20063;-88
2023/11/26 20:36:06;;;;;;;8.20;4.63;;;;;;;-2.16;100.00;100414.91;6277173;22;20136;-90
2023/11/26 20:38:35;;;;;;;8.17;4.67;;;;;;;-2.18;100.00;100418.28;6277953;22;20087;-90
2023/11/26 20:41:03;;;;;;;6.63;4.47;;;;;;;-2.20;100.00;100417.34;6277331;22;20098;-90
2023/11/26 20:43:30;;;;;;;10.27;4.97;;;;;;;-2.20;100.00;100417.34;6278040;22;20094;-89
2023/11/26 20:45:57;;;;;;;13.77;4.43;;;;;;;-2.22;100.00;100421.63;6252138;22;20075;-90
2023/11/26 20:48:24;;;;;;;6.37;3.63;;;;;;;-2.27;100.00;100419.78;6277610;22;20094;-90
2023/11/26 20:50:51;;;;;;;7.47;4.00;;;;;;;-2.25;100.00;100414.66;6277656;22;20565;-89
2023/11/26 20:53:18;;;;;;;6.17;3.50;;;;;;;-2.27;100.00;100406.84;6252581;22;20404;-90
2023/11/26 20:55:45;;;;;;;6.50;3.17;;;;;;;-2.29;100.00;100410.22;6277271;22;20094;-90
2023/11/26 20:58:12;;;;;;;7.13;3.87;;;;;;;-2.27;100.00;100405.94;6277870;22;20090;-90
2023/11/26 21:00:39;;;;;;;5.20;3.73;;;;;;;-2.21;100.00;100403.53;6252469;22;20099;-90
2023/11/26 21:03:06;;;;;;;6.70;3.97;;;;;;;-2.27;100.00;100403.38;6303296;22;20091;-91
2023/11/26 21:05:33;;;;;;;7.17;3.73;;;;;;;-2.18;100.00;100407.94;6252029;22;20067;-89
2023/11/26 21:08:00;;;;;;;6.33;3.83;;;;;;;-2.25;100.00;100406.91;6278171;22;20090;-90
2023/11/26 21:10:27;;;;;;;5.20;3.43;;;;;;;-2.25;100.00;100414.66;6297462;22;20240;-91
2023/11/26 21:12:56;;;;;;;5.00;3.30;;;;;;;-2.22;100.00;100414.72;6278468;22;20110;-91
2023/11/26 21:15:24;;;;;;;6.83;4.60;;;;;;;-2.21;100.00;100407.84;6252847;22;20090;-90
2023/11/26 21:17:51;;;;;;;7.33;4.10;;;;;;;-2.20;100.00;100412.16;6305608;22;20513;-90
2023/11/26 21:20:18;;;;;;;7.17;3.57;;;;;;;-2.23;100.00;100418.16;6279655;22;20113;-90
2023/11/26 21:22:45;;;;;;;5.43;3.60;;;;;;;-2.22;100.00;100411.25;6279771;22;20094;-90
2023/11/26 21:25:12;;;;;;;5.90;3.43;;;;;;;-2.22;100.00;100403.50;6280016;22;20321;-90
2023/11/26 21:27:39;;;;;;;6.37;4.07;;;;;;;-2.29;100.00;100405.03;6255403;22;20098;-89
2023/11/26 21:30:07;;;;;;;6.77;3.60;;;;;;;-2.26;100.00;100407.72;6254123;22;20103;-90
2023/11/26 21:32:34;;;;;;;4.27;3.20;;;;;;;-2.31;100.00;100399.84;6279423;22;20090;-90
2023/11/26 21:35:02;;;;;;;5.50;3.23;;;;;;;-2.33;100.00;100391.16;6279495;22;20094;-90
2023/11/26 21:37:29;;;;;;;7.27;3.63;;;;;;;-2.34;100.00;100385.94;6279248;22;20098;-90
2023/11/26 21:39:56;;;;;;;6.47;3.80;;;;;;;-2.30;100.00;100387.78;6279262;22;20090;-90
2023/11/26 21:42:24;;;;;;;6.87;3.43;;;;;;;-2.31;100.00;100397.25;6279619;22;20087;-90
2023/11/26 21:44:51;;;;;;;5.10;3.43;;;;;;;-2.23;100.00;100389.69;6279636;22;20106;-91
2023/11/26 21:47:18;;;;;;;6.60;3.80;;;;;;;-2.18;100.00;100395.00;6279757;22;20091;-90
2023/11/26 21:49:45;;;;;;;6.13;3.53;;;;;;;-2.21;100.00;100393.19;6279200;22;20099;-90
2023/11/26 21:52:14;;;;;;;5.80;3.60;;;;;;;-2.31;100.00;100393.78;6254613;22;20406;-89
2023/11/26 21:54:42;;;;;;;5.83;3.90;;;;;;;-2.36;100.00;100401.41;6280381;22;20094;-89
2023/11/26 21:57:09;;;;;;;6.90;3.93;;;;;;;-2.37;100.00;100403.97;6254128;22;20086;-91
2023/11/26 21:59:36;;;;;;;7.80;4.10;;;;;;;-2.38;100.00;100407.38;6279118;22;20090;-90
2023/11/26 22:02:03;;;;;;;6.40;3.67;;;;;;;-2.32;100.00;100408.44;6279303;22;20094;-90
2023/11/26 22:04:31;;;;;;;6.20;3.67;;;;;;;-2.29;100.00;100413.69;6254229;22;20530;-90
2023/11/26 22:07:02;;;;;;;5.90;3.83;;;;;;;-2.28;100.00;100397.31;6279666;22;20078;-90
2023/11/26 22:09:29;;;;;;;6.30;3.70;;;;;;;-2.24;100.00;100394.81;6279553;22;20407;-90
2023/11/26 22:11:56;;;;;;;5.80;3.70;;;;;;;-2.22;100.00;100388.84;6279340;22;20090;-90
2023/11/26 22:14:23;;;;;;;8.70;4.17;;;;;;;-2.22;100.00;100381.09;6253710;22;20568;-90
2023/11/26 22:16:50;;;;;;;6.83;3.63;;;;;;;-2.21;100.00;100369.03;6304820;22;20082;-90
2023/11/26 22:19:17;;;;;;;8.03;4.70;;;;;;;-2.18;100.00;100356.19;6254270;22;20106;-90
2023/11/26 22:21:44;;;;;;;8.07;3.70;;;;;;;-2.05;100.00;100360.81;6304887;22;20090;-90
2023/11/26 22:24:12;;;;;;;6.90;3.37;;;;;;;-1.95;100.00;100362.78;6279466;22;20094;-89
2023/11/26 22:26:39;;;;;;;6.23;3.57;;;;;;;-1.90;100.00;100349.97;6279039;22;20429;-90
2023/11/26 22:29:06;;;;;;;5.97;3.53;;;;;;;-1.94;100.00;100359.38;6279798;22;20098;-90
2023/11/26 22:31:34;;;;;;;5.90;3.53;;;;;;;-2.06;100.00;100357.34;6279241;22;20098;-88
2023/11/26 22:34:02;;;;;;;5.97;3.97;;;;;;;-2.10;100.00;100347.78;6279896;22;20118;-90
2023/11/26 22:36:30;;;;;;;6.43;3.90;;;;;;;-2.10;100.00;100352.97;6254755;22;20086;-89
2023/11/26 22:38:57;;;;;;;8.23;4.10;;;;;;;-2.09;100.00;100356.41;6254703;22;20090;-89
2023/11/26 22:41:27;;;;;;;7.50;3.83;;;;;;;-2.09;100.00;100359.88;6280501;22;20106;-88
2023/11/26 22:43:55;;;;;;;7.33;4.30;;;;;;;-2.01;100.00;100367.84;6267612;22;20027;-91
2023/11/26 22:46:24;;;;;;;8.03;5.00;;;;;;;-1.94;100.00;100379.19;6285746;22;20115;-89
2023/11/26 22:48:53;;;;;;;10.13;5.23;;;;;;;-2.03;100.00;100372.06;6278943;22;20090;-89
2023/11/26 22:51:20;;;;;;;7.00;4.90;;;;;;;-2.10;100.00;100372.75;6254052;22;20538;-88
2023/11/26 22:53:47;;;;;;;7.43;4.77;;;;;;;-2.13;100.00;100376.16;6304881;22;20098;-89
2023/11/26 22:56:14;;;;;;;8.40;5.37;;;;;;;-2.16;100.00;100381.25;6279286;22;20098;-88
2023/11/26 22:58:42;;;;;;;7.53;4.93;;;;;;;-2.21;100.00;100377.66;6305060;22;20458;-89
2023/11/26 23:01:10;;;;;;;9.70;4.87;;;;;;;-2.27;100.00;100380.06;6253947;22;20090;-89
2023/11/26 23:03:37;;;;;;;7.33;4.17;;;;;;;-2.28;100.00;100379.19;6279291;22;20098;-89
2023/11/26 23:06:08;;;;;;;5.97;4.47;;;;;;;-2.21;100.00;100375.06;6253850;22;20090;-89
2023/11/26 23:08:35;;;;;;;7.90;4.30;;;;;;;-2.22;100.00;100368.16;6304488;22;20405;-89
2023/11/26 23:11:03;;;;;;;7.57;4.57;;;;;;;-2.17;100.00;100369.16;6253631;22;20094;-88
2023/11/26 23:13:32;;;;;;;8.33;4.47;;;;;;;-2.15;100.00;100374.38;6303409;22;20340;-89
2023/11/26 23:15:58;;;;;;;8.53;5.03;;;;;;;-2.15;100.00;100362.31;6254471;22;20394;-89
2023/11/26 23:18:26;;;;;;;8.73;4.93;;;;;;;-2.17;100.00;100366.56;6279299;22;20086;-88
2023/11/26 23:20:53;;;;;;;8.63;4.67;;;;;;;-2.18;100.00;100362.22;6279696;22;20101;-88
2023/11/26 23:23:21;;;;;;;6.53;4.43;;;;;;;-2.21;100.00;100363.84;6280839;22;20086;-88
2023/11/26 23:26:08;;;;;;;9.47;4.17;;;;;;;-2.23;100.00;100362.94;6284447;22;20102;-88
2023/11/26 23:28:35;;;;;;;7.20;4.20;;;;;;;-2.26;100.00;100355.97;6305299;22;20406;-88
2023/11/26 23:31:02;;;;;;;6.63;4.03;;;;;;;-2.25;100.00;100362.91;6305679;22;20087;-89
2023/11/26 23:33:29;;;;;;;6.57;4.13;;;;;;;-2.27;100.00;100359.38;6305843;22;20094;-89
2023/11/26 23:35:56;;;;;;;6.83;3.97;;;;;;;-2.24;100.00;100350.84;6305761;22;20082;-88
2023/11/26 23:38:23;;;;;;;6.07;3.87;;;;;;;-2.22;100.00;100344.84;6255272;22;20098;-88
2023/11/26 23:40:50;;;;;;;6.07;3.43;;;;;;;-2.22;100.00;100336.22;6254947;22;20538;-88
2023/11/26 23:43:17;;;;;;;8.43;3.93;;;;;;;-2.20;100.00;100342.31;6306341;22;20386;-88
2023/11/26 23:45:45;;;;;;;14.03;4.27;;;;;;;-2.20;100.00;100339.72;6254594;22;20407;-90
2023/11/26 23:48:12;;;;;;;5.57;3.83;;;;;;;-2.12;100.00;100348.56;6255246;22;20548;-88
2023/11/26 23:50:39;;;;;;;7.23;4.30;;;;;;;-2.13;100.00;100342.50;6255183;22;20110;-88
2023/11/26 23:53:06;;;;;;;5.57;3.73;;;;;;;-2.10;100.00;100345.19;6306271;22;20401;-89
2023/11/26 23:55:33;;;;;;;8.43;3.60;;;;;;;-2.15;100.00;100340.72;6279818;22;20087;-89
2023/11/26 23:58:00;;;;;;;9.33;3.90;;;;;;;-2.17;100.00;100347.56;6279939;22;20082;-89
